Kalliste — FNEH — position and weather

sailwx.info

Track history (hours):
 
Tides and Currents Weather Stations Pressure Air Temp Water Temp Dewpoint Dewpoint Depression Visibility Wind Speed Wind Dir Waves Ship Positions

Kalliste

Last reported at 2018-Aug-19 22:31 UTC. Time now 2018-Aug-19 22:52 UTC.
Position N 42°09' E 007°37'.

Length 165 m; beam 29 m.

Type: Passenger vessel. MMSI: 227202000.

Date/timePositionNaut miles runAvg speedWind from/ knotsBaromVisibWave heightAir tempDewpointWater temp
2018-Aug-19 22:31N 42°09' E 007°37'1019.8
2018-Aug-19 22:00N 42°04' E 007°49'1019.9
2018-Aug-19 21:31N 41°59' E 007°60'1120.2
2018-Aug-19 20:59N 41°54' E 008°12'817.0
2018-Aug-19 20:30N 41°49' E 008°22'816.5
2018-Aug-19 20:00N 41°45' E 008°31'816.3
2018-Aug-19 19:30N 41°42' E 008°41'8 5.0
2018-Aug-19 17:53N 41°41' E 008°52'719.6
2018-Aug-19 17:30N 41°41' E 008°42'1120.4
2018-Aug-19 16:58N 41°46' E 008°29'1220.6
2018-Aug-19 16:24N 41°52' E 008°15'820.6
2018-Aug-19 16:00N 41°56' E 008°06'2620.7
2018-Aug-19 14:44N 42°10' E 007°36'1120.7
2018-Aug-19 14:12N 42°16' E 007°23'420.7
2018-Aug-19 14:00N 42°18' E 007°18'10420.0
2018-Aug-19 08:47N 43°14' E 005°19'415.0
2018-Aug-19 08:31N 43°18' E 005°21'1 0.9
2018-Aug-19 07:27N 43°19' E 005°22'0 0.0
2018-Aug-19 06:39N 43°19' E 005°22'0 0.0
2018-Aug-19 06:27N 43°19' E 005°22'0 0.0
2018-Aug-19 05:59N 43°19' E 005°22'0 0.0
2018-Aug-19 05:30N 43°19' E 005°22'0 0.0
2018-Aug-19 05:00N 43°19' E 005°22'1 2.0
2018-Aug-19 04:30N 43°20' E 005°21'4 7.2
2018-Aug-19 04:00N 43°16' E 005°19'6417.5
2018-Aug-19 00:21N 42°39' E 006°30'617.1
2018-Aug-19 00:00N 42°36' E 006°36'917.2
2018-Aug-18 23:30N 42°31' E 006°46'917.3
2018-Aug-18 22:59N 42°27' E 006°57'817.3
2018-Aug-18 22:30N 42°23' E 007°06'917.0
2018-Aug-18 22:00N 42°18' E 007°16'816.9
2018-Aug-18 21:30N 42°14' E 007°26'816.7
2018-Aug-18 21:00N 42°10' E 007°36'1016.6
2018-Aug-18 20:23N 42°04' E 007°48'616.8
2018-Aug-18 20:00N 42°01' E 007°55'817.0
2018-Aug-18 19:31N 41°57' E 008°05'917.3
2018-Aug-18 19:00N 41°53' E 008°15'1217.4
2018-Aug-18 18:19N 41°46' E 008°29'917.4
2018-Aug-18 17:47N 41°42' E 008°40'6 0.4
2018-Aug-18 04:21N 41°41' E 008°47'516.1
2018-Aug-18 04:00N 41°42' E 008°40'816.1
2018-Aug-18 03:30N 41°46' E 008°31'816.3
2018-Aug-18 03:00N 41°50' E 008°21'816.4
2018-Aug-18 02:30N 41°54' E 008°12'816.6
2018-Aug-18 02:00N 41°58' E 008°02'917.2
2018-Aug-18 01:30N 42°02' E 007°52'917.5
2018-Aug-18 00:59N 42°07' E 007°42'817.5
2018-Aug-18 00:30N 42°11' E 007°32'917.6
2018-Aug-17 23:59N 42°16' E 007°21'817.6
2018-Aug-17 23:30N 42°20' E 007°12'1017.5
2018-Aug-17 22:57N 42°25' E 007°00'817.3
2018-Aug-17 22:30N 42°29' E 006°51'917.4
2018-Aug-17 22:00N 42°33' E 006°41'917.4
2018-Aug-17 21:30N 42°38' E 006°30'917.3
2018-Aug-17 21:00N 42°42' E 006°20'5516.7
2018-Aug-17 17:41N 43°13' E 005°17'316.8
2018-Aug-17 17:29N 43°16' E 005°16'611.4
2018-Aug-17 17:00N 43°21' E 005°20'2 0.4
2018-Aug-17 11:33N 43°19' E 005°22'0 0.0
2018-Aug-17 06:20N 43°19' E 005°22'0 0.0
2018-Aug-17 06:00N 43°19' E 005°22'2 4.1
2018-Aug-17 05:27N 43°21' E 005°20'612.5
2018-Aug-17 05:00N 43°16' E 005°16'5319.1
2018-Aug-17 02:15N 42°45' E 006°15'416.9
2018-Aug-17 02:00N 42°43' E 006°20'816.7
2018-Aug-17 01:30N 42°38' E 006°29'816.7
2018-Aug-17 01:00N 42°34' E 006°39'1016.7
2018-Aug-17 00:23N 42°28' E 006°51'616.7
2018-Aug-17 00:00N 42°25' E 006°58'816.8
2018-Aug-16 23:30N 42°21' E 007°08'816.4
2018-Aug-16 23:00N 42°17' E 007°18'816.4
2018-Aug-16 22:30N 42°13' E 007°28'816.6
2018-Aug-16 22:00N 42°09' E 007°37'816.6
2018-Aug-16 21:30N 42°05' E 007°47'816.6
2018-Aug-16 21:01N 42°01' E 007°56'816.7
2018-Aug-16 20:30N 41°57' E 008°06'816.7
2018-Aug-16 20:00N 41°52' E 008°16'2617.1
2018-Aug-16 18:29N 41°41' E 008°47'2 4.4
2018-Aug-16 18:00N 41°41' E 008°50'2 0.6
2018-Aug-16 15:29N 41°40' E 008°48'918.5
2018-Aug-16 15:00N 41°32' E 008°42'21 1.7
2018-Aug-16 02:54N 41°48' E 008°25'717.7
2018-Aug-16 02:30N 41°52' E 008°17'917.6
2018-Aug-16 02:00N 41°56' E 008°07'917.3
2018-Aug-16 01:29N 42°00' E 007°56'817.3
2018-Aug-16 01:00N 42°05' E 007°47'917.5
2018-Aug-16 00:28N 42°09' E 007°36'817.5
2018-Aug-16 00:00N 42°13' E 007°26'917.4
2018-Aug-15 23:30N 42°18' E 007°16'917.4
2018-Aug-15 23:01N 42°22' E 007°06'917.4
2018-Aug-15 22:28N 42°27' E 006°55'8017.2
2018-Aug-15 17:49N 43°07' E 005°21'717.3
2018-Aug-15 17:26N 43°13' E 005°17'715.3
2018-Aug-15 17:00N 43°20' E 005°18'3 2.1
2018-Aug-15 15:37N 43°19' E 005°22'0 0.0
2018-Aug-15 15:25N 43°19' E 005°22'0 0.0
2018-Aug-15 13:25N 43°19' E 005°22'0 0.0
2018-Aug-15 12:58N 43°19' E 005°22'0 0.0
2018-Aug-15 10:19N 43°19' E 005°22'0 0.0
2018-Aug-15 09:43N 43°19' E 005°22'0 0.0
2018-Aug-15 09:25N 43°19' E 005°22'0 0.0
2018-Aug-15 07:25N 43°19' E 005°22'0 0.0
2018-Aug-15 06:55N 43°19' E 005°22'0 0.0
2018-Aug-15 06:25N 43°19' E 005°22'0 0.0
2018-Aug-15 05:58N 43°19' E 005°22'0 0.0
2018-Aug-15 05:30N 43°19' E 005°22'2 3.2
2018-Aug-15 05:00N 43°20' E 005°20'5 9.1
2018-Aug-15 04:30N 43°16' E 005°18'2 0.1
2018-Aug-13 17:42N 43°14' E 005°16'515.2
2018-Aug-13 17:21N 43°19' E 005°18'2 5.4
2018-Aug-13 16:55N 43°19' E 005°21'0 1.1
2018-Aug-13 16:29N 43°19' E 005°22'0 0.0
2018-Aug-13 15:47N 43°19' E 005°22'0 0.0
2018-Aug-13 14:35N 43°19' E 005°22'0 0.0
2018-Aug-13 06:03N 43°19' E 005°22'0 0.1
2018-Aug-13 05:59N 43°19' E 005°22'3 6.8
2018-Aug-13 05:29N 43°21' E 005°18'814.5
2018-Aug-13 04:57N 43°13' E 005°18'4317.5
2018-Aug-13 02:29N 42°49' E 006°06'919.2
2018-Aug-13 02:00N 42°44' E 006°17'2619.9
2018-Aug-13 00:41N 42°31' E 006°48'1320.1
2018-Aug-13 00:02N 42°24' E 007°03'120.4
2018-Aug-13 00:00N 42°24' E 007°04'1320.3
2018-Aug-12 23:21N 42°17' E 007°19'720.3
2018-Aug-12 23:00N 42°14' E 007°27'1020.2
2018-Aug-12 22:30N 42°08' E 007°39'1020.2
2018-Aug-12 22:00N 42°03' E 007°51'816.7
2018-Aug-12 21:30N 41°59' E 008°00'917.2
2018-Aug-12 21:00N 41°55' E 008°11'917.1
2018-Aug-12 20:30N 41°50' E 008°20'7 1.6
2018-Aug-12 15:59N 41°54' E 008°12'1120.9
2018-Aug-12 15:27N 41°59' E 007°59'1021.2
2018-Aug-12 15:00N 42°04' E 007°48'1121.4
2018-Aug-12 14:30N 42°10' E 007°36'11720.5
2018-Aug-12 08:47N 43°11' E 005°20'618.8
2018-Aug-12 08:29N 43°16' E 005°20'3 5.0
2018-Aug-12 07:57N 43°19' E 005°22'0 0.0
2018-Aug-12 07:30N 43°19' E 005°22'0 0.0
2018-Aug-12 06:59N 43°19' E 005°22'0 0.0
2018-Aug-12 06:30N 43°19' E 005°22'0 0.0
2018-Aug-12 05:57N 43°19' E 005°22'0 0.0
2018-Aug-12 05:29N 43°19' E 005°22'0 0.0
2018-Aug-12 05:00N 43°19' E 005°22'2 4.5
2018-Aug-12 04:29N 43°21' E 005°20'612.0
2018-Aug-12 04:00N 43°15' E 005°18'1918.6
2018-Aug-12 02:58N 43°02' E 005°38'920.0
2018-Aug-12 02:30N 42°57' E 005°48'1320.0
2018-Aug-12 01:51N 42°51' E 006°04'720.1
2018-Aug-12 01:30N 42°47' E 006°13'917.5
2018-Aug-12 01:00N 42°42' E 006°22'1116.0
2018-Aug-12 00:20N 42°36' E 006°34'516.1
2018-Aug-12 00:01N 42°33' E 006°40'816.2
2018-Aug-11 23:30N 42°30' E 006°50'1016.3
2018-Aug-11 22:55N 42°25' E 007°01'1016.2
2018-Aug-11 22:19N 42°20' E 007°12'916.0
2018-Aug-11 21:45N 42°15' E 007°23'415.8
2018-Aug-11 21:30N 42°14' E 007°28'815.8
2018-Aug-11 21:01N 42°10' E 007°37'816.1
2018-Aug-11 20:30N 42°05' E 007°46'816.3
2018-Aug-11 20:00N 42°01' E 007°56'1816.7
2018-Aug-11 18:56N 41°52' E 008°16'18 1.0
2018-Aug-11 01:47N 42°01' E 007°55'516.8
2018-Aug-11 01:31N 42°03' E 007°50'816.6
2018-Aug-11 01:00N 42°08' E 007°40'816.9
2018-Aug-11 00:31N 42°12' E 007°30'816.9
2018-Aug-11 00:00N 42°16' E 007°21'816.8
2018-Aug-10 23:31N 42°21' E 007°11'916.8
2018-Aug-10 23:00N 42°25' E 007°01'816.9
2018-Aug-10 22:30N 42°29' E 006°51'916.9
2018-Aug-10 21:59N 42°34' E 006°41'7217.3
2018-Aug-10 17:50N 43°12' E 005°18'616.0
2018-Aug-10 17:29N 43°18' E 005°17'4 0.9
2018-Aug-10 13:02N 43°19' E 005°22'0 0.0
2018-Aug-10 12:08N 43°19' E 005°22'0 0.0
2018-Aug-10 11:56N 43°19' E 005°22'0 0.0
2018-Aug-10 09:44N 43°19' E 005°22'0 0.0
2018-Aug-10 09:26N 43°19' E 005°22'0 0.0
2018-Aug-10 08:56N 43°19' E 005°22'0 0.0
2018-Aug-10 07:38N 43°19' E 005°22'0 0.0
2018-Aug-10 06:59N 43°19' E 005°22'0 0.0
2018-Aug-10 06:26N 43°19' E 005°22'0 0.0
2018-Aug-10 06:00N 43°19' E 005°22'2 3.1
2018-Aug-10 05:30N 43°20' E 005°21'4 7.8
2018-Aug-10 05:00N 43°16' E 005°19'7217.9
2018-Aug-10 01:00N 42°35' E 006°39'2517.7
2018-Aug-09 23:35N 42°22' E 007°08'117.7
2018-Aug-09 23:31N 42°21' E 007°09'917.5
2018-Aug-09 23:01N 42°17' E 007°19'  
Track history (hours):
 
Tides and Currents Weather Stations Pressure Air Temp Water Temp Dewpoint Dewpoint Depression Visibility Wind Speed Wind Dir Waves Ship Positions

Kalliste

Last reported at 2018-Aug-19 22:31 UTC. Time now 2018-Aug-19 22:52 UTC.
Position N 42°09' E 007°37'.

Length 165 m; beam 29 m.

Type: Passenger vessel. MMSI: 227202000.

Date/timePositionNaut miles runAvg speedWind from/ knotsBaromVisibWave heightAir tempDewpointWater temp
2018-Aug-19 22:31N 42°09' E 007°37'1019.8
2018-Aug-19 22:00N 42°04' E 007°49'1019.9
2018-Aug-19 21:31N 41°59' E 007°60'1120.2
2018-Aug-19 20:59N 41°54' E 008°12'817.0
2018-Aug-19 20:30N 41°49' E 008°22'816.5
2018-Aug-19 20:00N 41°45' E 008°31'816.3
2018-Aug-19 19:30N 41°42' E 008°41'8 5.0
2018-Aug-19 17:53N 41°41' E 008°52'719.6
2018-Aug-19 17:30N 41°41' E 008°42'1120.4
2018-Aug-19 16:58N 41°46' E 008°29'1220.6
2018-Aug-19 16:24N 41°52' E 008°15'820.6
2018-Aug-19 16:00N 41°56' E 008°06'2620.7
2018-Aug-19 14:44N 42°10' E 007°36'1120.7
2018-Aug-19 14:12N 42°16' E 007°23'420.7
2018-Aug-19 14:00N 42°18' E 007°18'10420.0
2018-Aug-19 08:47N 43°14' E 005°19'415.0
2018-Aug-19 08:31N 43°18' E 005°21'1 0.9
2018-Aug-19 07:27N 43°19' E 005°22'0 0.0
2018-Aug-19 06:39N 43°19' E 005°22'0 0.0
2018-Aug-19 06:27N 43°19' E 005°22'0 0.0
2018-Aug-19 05:59N 43°19' E 005°22'0 0.0
2018-Aug-19 05:30N 43°19' E 005°22'0 0.0
2018-Aug-19 05:00N 43°19' E 005°22'1 2.0
2018-Aug-19 04:30N 43°20' E 005°21'4 7.2
2018-Aug-19 04:00N 43°16' E 005°19'6417.5
2018-Aug-19 00:21N 42°39' E 006°30'617.1
2018-Aug-19 00:00N 42°36' E 006°36'917.2
2018-Aug-18 23:30N 42°31' E 006°46'917.3
2018-Aug-18 22:59N 42°27' E 006°57'817.3
2018-Aug-18 22:30N 42°23' E 007°06'917.0
2018-Aug-18 22:00N 42°18' E 007°16'816.9
2018-Aug-18 21:30N 42°14' E 007°26'816.7
2018-Aug-18 21:00N 42°10' E 007°36'1016.6
2018-Aug-18 20:23N 42°04' E 007°48'616.8
2018-Aug-18 20:00N 42°01' E 007°55'817.0
2018-Aug-18 19:31N 41°57' E 008°05'917.3
2018-Aug-18 19:00N 41°53' E 008°15'1217.4
2018-Aug-18 18:19N 41°46' E 008°29'917.4
2018-Aug-18 17:47N 41°42' E 008°40'6 0.4
2018-Aug-18 04:21N 41°41' E 008°47'516.1
2018-Aug-18 04:00N 41°42' E 008°40'816.1
2018-Aug-18 03:30N 41°46' E 008°31'816.3
2018-Aug-18 03:00N 41°50' E 008°21'816.4
2018-Aug-18 02:30N 41°54' E 008°12'816.6
2018-Aug-18 02:00N 41°58' E 008°02'917.2
2018-Aug-18 01:30N 42°02' E 007°52'917.5
2018-Aug-18 00:59N 42°07' E 007°42'817.5
2018-Aug-18 00:30N 42°11' E 007°32'917.6
2018-Aug-17 23:59N 42°16' E 007°21'817.6
2018-Aug-17 23:30N 42°20' E 007°12'1017.5
2018-Aug-17 22:57N 42°25' E 007°00'817.3
2018-Aug-17 22:30N 42°29' E 006°51'917.4
2018-Aug-17 22:00N 42°33' E 006°41'917.4
2018-Aug-17 21:30N 42°38' E 006°30'917.3
2018-Aug-17 21:00N 42°42' E 006°20'5516.7
2018-Aug-17 17:41N 43°13' E 005°17'316.8
2018-Aug-17 17:29N 43°16' E 005°16'611.4
2018-Aug-17 17:00N 43°21' E 005°20'2 0.4
2018-Aug-17 11:33N 43°19' E 005°22'0 0.0
2018-Aug-17 06:20N 43°19' E 005°22'0 0.0
2018-Aug-17 06:00N 43°19' E 005°22'2 4.1
2018-Aug-17 05:27N 43°21' E 005°20'612.5
2018-Aug-17 05:00N 43°16' E 005°16'5319.1
2018-Aug-17 02:15N 42°45' E 006°15'416.9
2018-Aug-17 02:00N 42°43' E 006°20'816.7
2018-Aug-17 01:30N 42°38' E 006°29'816.7
2018-Aug-17 01:00N 42°34' E 006°39'1016.7
2018-Aug-17 00:23N 42°28' E 006°51'616.7
2018-Aug-17 00:00N 42°25' E 006°58'816.8
2018-Aug-16 23:30N 42°21' E 007°08'816.4
2018-Aug-16 23:00N 42°17' E 007°18'816.4
2018-Aug-16 22:30N 42°13' E 007°28'816.6
2018-Aug-16 22:00N 42°09' E 007°37'816.6
2018-Aug-16 21:30N 42°05' E 007°47'816.6
2018-Aug-16 21:01N 42°01' E 007°56'816.7
2018-Aug-16 20:30N 41°57' E 008°06'816.7
2018-Aug-16 20:00N 41°52' E 008°16'2617.1
2018-Aug-16 18:29N 41°41' E 008°47'2 4.4
2018-Aug-16 18:00N 41°41' E 008°50'2 0.6
2018-Aug-16 15:29N 41°40' E 008°48'918.5
2018-Aug-16 15:00N 41°32' E 008°42'21 1.7
2018-Aug-16 02:54N 41°48' E 008°25'717.7
2018-Aug-16 02:30N 41°52' E 008°17'917.6
2018-Aug-16 02:00N 41°56' E 008°07'917.3
2018-Aug-16 01:29N 42°00' E 007°56'817.3
2018-Aug-16 01:00N 42°05' E 007°47'917.5
2018-Aug-16 00:28N 42°09' E 007°36'817.5
2018-Aug-16 00:00N 42°13' E 007°26'917.4
2018-Aug-15 23:30N 42°18' E 007°16'917.4
2018-Aug-15 23:01N 42°22' E 007°06'917.4
2018-Aug-15 22:28N 42°27' E 006°55'8017.2
2018-Aug-15 17:49N 43°07' E 005°21'717.3
2018-Aug-15 17:26N 43°13' E 005°17'715.3
2018-Aug-15 17:00N 43°20' E 005°18'3 2.1
2018-Aug-15 15:37N 43°19' E 005°22'0 0.0
2018-Aug-15 15:25N 43°19' E 005°22'0 0.0
2018-Aug-15 13:25N 43°19' E 005°22'0 0.0
2018-Aug-15 12:58N 43°19' E 005°22'0 0.0
2018-Aug-15 10:19N 43°19' E 005°22'0 0.0
2018-Aug-15 09:43N 43°19' E 005°22'0 0.0
2018-Aug-15 09:25N 43°19' E 005°22'0 0.0
2018-Aug-15 07:25N 43°19' E 005°22'0 0.0
2018-Aug-15 06:55N 43°19' E 005°22'0 0.0
2018-Aug-15 06:25N 43°19' E 005°22'0 0.0
2018-Aug-15 05:58N 43°19' E 005°22'0 0.0
2018-Aug-15 05:30N 43°19' E 005°22'2 3.2
2018-Aug-15 05:00N 43°20' E 005°20'5 9.1
2018-Aug-15 04:30N 43°16' E 005°18'2 0.1
2018-Aug-13 17:42N 43°14' E 005°16'515.2
2018-Aug-13 17:21N 43°19' E 005°18'2 5.4
2018-Aug-13 16:55N 43°19' E 005°21'0 1.1
2018-Aug-13 16:29N 43°19' E 005°22'0 0.0
2018-Aug-13 15:47N 43°19' E 005°22'0 0.0
2018-Aug-13 14:35N 43°19' E 005°22'0 0.0
2018-Aug-13 06:03N 43°19' E 005°22'0 0.1
2018-Aug-13 05:59N 43°19' E 005°22'3 6.8
2018-Aug-13 05:29N 43°21' E 005°18'814.5
2018-Aug-13 04:57N 43°13' E 005°18'4317.5
2018-Aug-13 02:29N 42°49' E 006°06'919.2
2018-Aug-13 02:00N 42°44' E 006°17'2619.9
2018-Aug-13 00:41N 42°31' E 006°48'1320.1
2018-Aug-13 00:02N 42°24' E 007°03'120.4
2018-Aug-13 00:00N 42°24' E 007°04'1320.3
2018-Aug-12 23:21N 42°17' E 007°19'720.3
2018-Aug-12 23:00N 42°14' E 007°27'1020.2
2018-Aug-12 22:30N 42°08' E 007°39'1020.2
2018-Aug-12 22:00N 42°03' E 007°51'816.7
2018-Aug-12 21:30N 41°59' E 008°00'917.2
2018-Aug-12 21:00N 41°55' E 008°11'917.1
2018-Aug-12 20:30N 41°50' E 008°20'7 1.6
2018-Aug-12 15:59N 41°54' E 008°12'1120.9
2018-Aug-12 15:27N 41°59' E 007°59'1021.2
2018-Aug-12 15:00N 42°04' E 007°48'1121.4
2018-Aug-12 14:30N 42°10' E 007°36'11720.5
2018-Aug-12 08:47N 43°11' E 005°20'618.8
2018-Aug-12 08:29N 43°16' E 005°20'3 5.0
2018-Aug-12 07:57N 43°19' E 005°22'0 0.0
2018-Aug-12 07:30N 43°19' E 005°22'0 0.0
2018-Aug-12 06:59N 43°19' E 005°22'0 0.0
2018-Aug-12 06:30N 43°19' E 005°22'0 0.0
2018-Aug-12 05:57N 43°19' E 005°22'0 0.0
2018-Aug-12 05:29N 43°19' E 005°22'0 0.0
2018-Aug-12 05:00N 43°19' E 005°22'2 4.5
2018-Aug-12 04:29N 43°21' E 005°20'612.0
2018-Aug-12 04:00N 43°15' E 005°18'1918.6
2018-Aug-12 02:58N 43°02' E 005°38'920.0
2018-Aug-12 02:30N 42°57' E 005°48'1320.0
2018-Aug-12 01:51N 42°51' E 006°04'720.1
2018-Aug-12 01:30N 42°47' E 006°13'917.5
2018-Aug-12 01:00N 42°42' E 006°22'1116.0
2018-Aug-12 00:20N 42°36' E 006°34'516.1
2018-Aug-12 00:01N 42°33' E 006°40'816.2
2018-Aug-11 23:30N 42°30' E 006°50'1016.3
2018-Aug-11 22:55N 42°25' E 007°01'1016.2
2018-Aug-11 22:19N 42°20' E 007°12'916.0
2018-Aug-11 21:45N 42°15' E 007°23'415.8
2018-Aug-11 21:30N 42°14' E 007°28'815.8
2018-Aug-11 21:01N 42°10' E 007°37'816.1
2018-Aug-11 20:30N 42°05' E 007°46'816.3
2018-Aug-11 20:00N 42°01' E 007°56'1816.7
2018-Aug-11 18:56N 41°52' E 008°16'18 1.0
2018-Aug-11 01:47N 42°01' E 007°55'516.8
2018-Aug-11 01:31N 42°03' E 007°50'816.6
2018-Aug-11 01:00N 42°08' E 007°40'816.9
2018-Aug-11 00:31N 42°12' E 007°30'816.9
2018-Aug-11 00:00N 42°16' E 007°21'816.8
2018-Aug-10 23:31N 42°21' E 007°11'916.8
2018-Aug-10 23:00N 42°25' E 007°01'816.9
2018-Aug-10 22:30N 42°29' E 006°51'916.9
2018-Aug-10 21:59N 42°34' E 006°41'7217.3
2018-Aug-10 17:50N 43°12' E 005°18'616.0
2018-Aug-10 17:29N 43°18' E 005°17'4 0.9
2018-Aug-10 13:02N 43°19' E 005°22'0 0.0
2018-Aug-10 12:08N 43°19' E 005°22'0 0.0
2018-Aug-10 11:56N 43°19' E 005°22'0 0.0
2018-Aug-10 09:44N 43°19' E 005°22'0 0.0
2018-Aug-10 09:26N 43°19' E 005°22'0 0.0
2018-Aug-10 08:56N 43°19' E 005°22'0 0.0
2018-Aug-10 07:38N 43°19' E 005°22'0 0.0
2018-Aug-10 06:59N 43°19' E 005°22'0 0.0
2018-Aug-10 06:26N 43°19' E 005°22'0 0.0
2018-Aug-10 06:00N 43°19' E 005°22'2 3.1
2018-Aug-10 05:30N 43°20' E 005°21'4 7.8
2018-Aug-10 05:00N 43°16' E 005°19'7217.9
2018-Aug-10 01:00N 42°35' E 006°39'2517.7
2018-Aug-09 23:35N 42°22' E 007°08'117.7
2018-Aug-09 23:31N 42°21' E 007°09'917.5
2018-Aug-09 23:01N 42°17' E 007°19'  

Dump ship's entire track history